Time;durP1;ratioP1;P1;durP2;ratioP2;P2;SDS_P1;SDS_P2;PMS_P1;PMS_P2;Temp;Humidity;BMP_temperature;BMP_pressure;BME280_temperature;BME280_humidity;BME280_pressure;Samples;Min_cycle;Max_cycle;Signal;HPM_P1;HPM_P2
2022/09/28 00:01:17;;;;;;;2.45;2.08;;;9.70;99.90;;;;;;5056871;28;20196;-86
2022/09/28 00:03:45;;;;;;;3.55;2.45;;;9.70;99.90;;;;;;5071005;28;20211;-85
2022/09/28 00:06:15;;;;;;;2.65;2.55;;;9.70;99.90;;;;;;5056753;28;20207;-85
2022/09/28 00:08:44;;;;;;;2.85;2.17;;;9.70;99.90;;;;;;5052288;28;20218;-85
2022/09/28 00:11:14;;;;;;;3.05;2.40;;;9.80;99.90;;;;;;5062663;28;20234;-85
2022/09/28 00:13:44;;;;;;;3.22;2.80;;;9.80;99.90;;;;;;5076897;28;20191;-85
2022/09/28 00:16:15;;;;;;;5.80;2.72;;;9.80;99.90;;;;;;5060131;28;20188;-85
2022/09/28 00:18:44;;;;;;;4.57;3.08;;;9.80;99.90;;;;;;5060037;28;20196;-85
2022/09/28 00:21:15;;;;;;;8.85;3.45;;;9.80;99.90;;;;;;5090219;28;20176;-85
2022/09/28 00:26:26;;;;;;;4.53;2.70;;;9.80;99.90;;;;;;5091223;28;20226;-85
2022/09/28 00:28:58;;;;;;;4.53;2.80;;;9.80;99.90;;;;;;5053382;28;20200;-85
2022/09/28 00:31:27;;;;;;;5.72;3.45;;;9.80;99.90;;;;;;5072373;28;20215;-85
2022/09/28 00:33:56;;;;;;;5.18;2.80;;;9.80;99.90;;;;;;5077645;28;20596;-85
2022/09/28 00:36:26;;;;;;;4.40;2.65;;;9.80;99.90;;;;;;5042768;28;20204;-85
2022/09/28 00:38:55;;;;;;;2.80;2.60;;;9.80;99.90;;;;;;5076322;28;20196;-85
2022/09/28 00:41:24;;;;;;;2.95;2.30;;;9.90;99.90;;;;;;5058816;28;20192;-85
2022/09/28 00:44:13;;;;;;;7.47;2.40;;;9.90;99.90;;;;;;5074210;28;20507;-85
2022/09/28 00:46:43;;;;;;;5.70;2.50;;;9.90;99.90;;;;;;5075174;28;20204;-85
2022/09/28 00:49:17;;;;;;;3.08;2.40;;;9.90;99.90;;;;;;5075294;28;20219;-85
2022/09/28 00:51:47;;;;;;;2.55;1.90;;;9.90;99.90;;;;;;5075156;28;20682;-85
2022/09/28 00:54:16;;;;;;;2.60;2.40;;;9.90;99.90;;;;;;5076156;28;20181;-85
2022/09/28 00:56:48;;;;;;;3.08;1.80;;;9.90;99.90;;;;;;5041519;28;20203;-85
2022/09/28 00:59:16;;;;;;;2.67;2.10;;;9.90;99.90;;;;;;5054846;28;20188;-85
2022/09/28 01:01:45;;;;;;;1.95;1.75;;;9.90;99.90;;;;;;5066824;28;20196;-85
2022/09/28 01:04:14;;;;;;;4.05;1.70;;;9.90;99.90;;;;;;5076796;28;20204;-84
2022/09/28 01:06:43;;;;;;;4.80;2.42;;;9.90;99.90;;;;;;5056387;28;20213;-85
2022/09/28 01:09:14;;;;;;;2.50;2.08;;;9.90;99.90;;;;;;5042033;28;20204;-85
2022/09/28 01:11:43;;;;;;;2.00;1.85;;;9.90;99.90;;;;;;5074598;28;20228;-85
2022/09/28 01:14:15;;;;;;;1.90;1.80;;;9.90;99.90;;;;;;5064264;28;20572;-85
2022/09/28 01:16:53;;;;;;;7.18;2.30;;;9.90;99.90;;;;;;5022790;28;20204;-85
2022/09/28 01:20:07;;;;;;;4.20;2.20;;;9.90;99.90;;;;;;5051553;28;20203;-86
2022/09/28 01:23:08;;;;;;;3.22;2.20;;;9.90;99.90;;;;;;5056751;28;20558;-85
2022/09/28 01:25:42;;;;;;;3.08;2.10;;;9.90;99.90;;;;;;5052036;28;20200;-85
2022/09/28 01:28:14;;;;;;;3.50;2.20;;;9.90;99.90;;;;;;5057112;28;20203;-83
2022/09/28 01:30:47;;;;;;;1.85;1.70;;;9.90;99.90;;;;;;5040342;28;20196;-85
2022/09/28 01:33:27;;;;;;;2.10;2.00;;;9.90;99.90;;;;;;5027215;28;20548;-86
2022/09/28 01:35:59;;;;;;;2.50;2.40;;;9.90;99.90;;;;;;5056136;28;20189;-85
2022/09/28 01:38:33;;;;;;;3.92;2.13;;;9.90;99.90;;;;;;5073871;28;20271;-85
2022/09/28 01:41:03;;;;;;;3.83;2.55;;;10.00;99.90;;;;;;5073662;28;20192;-86
2022/09/28 01:43:37;;;;;;;9.00;3.17;;;10.00;99.90;;;;;;5075107;28;20204;-86
2022/09/28 01:46:10;;;;;;;3.28;1.95;;;10.00;99.90;;;;;;5075014;28;20187;-86
2022/09/28 01:48:45;;;;;;;1.67;1.58;;;9.90;99.90;;;;;;5040993;28;20187;-85
2022/09/28 01:51:19;;;;;;;2.97;1.52;;;9.90;99.90;;;;;;5057250;28;20207;-86
2022/09/28 01:53:53;;;;;;;1.60;1.50;;;9.80;99.90;;;;;;5056982;28;20183;-85
2022/09/28 01:56:28;;;;;;;1.63;1.10;;;9.80;99.90;;;;;;5040413;28;20305;-85
2022/09/28 01:59:03;;;;;;;4.10;1.30;;;9.80;99.90;;;;;;5040334;28;20210;-86
2022/09/28 02:01:37;;;;;;;1.30;0.98;;;9.80;99.90;;;;;;5056765;28;20195;-86
2022/09/28 02:04:12;;;;;;;1.92;1.00;;;9.90;99.90;;;;;;5040797;28;20195;-83
2022/09/28 02:06:46;;;;;;;1.98;1.23;;;9.90;99.90;;;;;;5045806;28;20223;-83
2022/09/28 02:09:21;;;;;;;13.18;1.73;;;9.90;99.90;;;;;;5056087;28;20203;-85
2022/09/28 02:11:54;;;;;;;1.10;1.10;;;9.90;99.90;;;;;;5064645;28;20239;-85
2022/09/28 02:14:25;;;;;;;1.83;1.10;;;9.90;99.90;;;;;;5045969;28;20665;-86
2022/09/28 02:16:56;;;;;;;1.70;1.38;;;9.90;99.90;;;;;;5056357;28;20553;-85
2022/09/28 02:19:32;;;;;;;1.10;1.10;;;9.90;99.90;;;;;;5056310;28;20192;-85
2022/09/28 02:22:06;;;;;;;3.08;1.00;;;9.90;99.90;;;;;;5056853;28;20219;-85
2022/09/28 02:24:39;;;;;;;3.25;1.25;;;9.90;99.90;;;;;;5046348;28;20187;-86
2022/09/28 02:27:15;;;;;;;1.90;1.20;;;9.90;99.90;;;;;;5058052;28;20184;-85
2022/09/28 02:29:44;;;;;;;2.13;1.30;;;9.90;99.90;;;;;;5055404;28;20226;-86
2022/09/28 02:32:12;;;;;;;1.92;1.23;;;9.90;99.90;;;;;;5056455;28;20326;-86
2022/09/28 02:34:42;;;;;;;2.75;1.17;;;9.90;99.90;;;;;;5055400;28;20203;-85
2022/09/28 02:37:10;;;;;;;3.25;1.10;;;9.90;99.90;;;;;;5055853;28;21113;-86
2022/09/28 02:39:38;;;;;;;2.13;0.95;;;9.90;99.90;;;;;;5057249;28;20199;-85
2022/09/28 02:42:16;;;;;;;1.65;1.10;;;9.90;99.90;;;;;;5057945;28;20674;-86
2022/09/28 02:45:04;;;;;;;2.50;1.05;;;9.90;99.90;;;;;;5075264;28;20223;-85
2022/09/28 02:47:53;;;;;;;1.10;1.10;;;9.80;99.90;;;;;;5075431;28;20188;-85
2022/09/28 02:50:27;;;;;;;2.35;1.20;;;9.80;99.90;;;;;;5039116;28;20195;-86
2022/09/28 02:53:14;;;;;;;4.03;1.08;;;9.80;99.90;;;;;;5057767;28;20199;-86
2022/09/28 02:55:55;;;;;;;1.20;1.10;;;9.80;99.90;;;;;;5039643;28;20192;-86
2022/09/28 02:58:35;;;;;;;4.63;1.20;;;9.80;99.90;;;;;;5020827;28;20670;-87
2022/09/28 03:01:14;;;;;;;1.77;1.30;;;9.80;99.90;;;;;;5043300;28;20681;-88
2022/09/28 03:03:49;;;;;;;1.77;1.60;;;9.80;99.90;;;;;;5056166;28;20187;-88
2022/09/28 03:06:24;;;;;;;2.92;1.15;;;9.80;99.90;;;;;;5057827;28;20335;-86
2022/09/28 03:08:58;;;;;;;1.23;1.20;;;9.70;99.90;;;;;;5049934;28;20203;-88
2022/09/28 03:11:35;;;;;;;3.22;1.20;;;9.70;99.90;;;;;;5037949;28;20228;-88
2022/09/28 03:14:04;;;;;;;3.40;1.33;;;9.70;99.90;;;;;;5055291;28;20200;-88
2022/09/28 03:16:45;;;;;;;2.25;1.52;;;9.70;99.90;;;;;;5056075;28;20198;-88
2022/09/28 03:19:15;;;;;;;1.55;1.35;;;9.70;99.90;;;;;;5055501;28;20690;-88
2022/09/28 03:21:43;;;;;;;2.35;1.35;;;9.70;99.90;;;;;;5057362;28;20192;-88
2022/09/28 03:24:11;;;;;;;1.63;1.20;;;9.70;99.90;;;;;;5038393;28;20204;-88
2022/09/28 03:26:41;;;;;;;3.72;1.40;;;9.70;99.90;;;;;;5073091;28;20208;-88
2022/09/28 03:29:09;;;;;;;2.28;1.70;;;9.70;99.90;;;;;;5055282;28;20663;-88
2022/09/28 03:31:43;;;;;;;1.70;1.60;;;9.70;99.90;;;;;;5056654;28;20191;-87
2022/09/28 03:34:12;;;;;;;2.90;1.40;;;9.70;99.90;;;;;;5048081;28;20207;-88
2022/09/28 03:36:40;;;;;;;3.13;1.50;;;9.60;99.90;;;;;;5054008;28;20212;-88
2022/09/28 03:39:08;;;;;;;3.25;1.50;;;9.60;99.90;;;;;;5067441;28;20211;-87
2022/09/28 03:41:38;;;;;;;5.57;1.63;;;9.60;99.90;;;;;;5035840;28;20223;-88
2022/09/28 03:44:06;;;;;;;1.80;1.55;;;9.60;99.90;;;;;;5035099;28;20579;-88
2022/09/28 03:46:34;;;;;;;5.03;2.25;;;9.60;99.90;;;;;;5045644;28;20548;-87
2022/09/28 03:49:07;;;;;;;2.65;1.20;;;9.60;99.90;;;;;;5034444;28;20196;-87
2022/09/28 03:51:36;;;;;;;2.60;1.65;;;9.60;99.90;;;;;;5061446;28;20207;-88
2022/09/28 03:54:04;;;;;;;6.18;1.75;;;9.60;99.90;;;;;;5054335;28;20215;-88
2022/09/28 03:56:32;;;;;;;1.50;1.40;;;9.60;99.90;;;;;;5051073;28;20196;-88
2022/09/28 03:59:03;;;;;;;1.60;1.17;;;9.50;99.90;;;;;;5067171;28;20608;-87
2022/09/28 04:01:31;;;;;;;1.50;1.30;;;9.50;99.90;;;;;;5062787;28;20673;-88
2022/09/28 04:03:59;;;;;;;4.75;1.75;;;9.50;99.90;;;;;;5054311;28;20188;-88
2022/09/28 04:06:27;;;;;;;4.22;1.40;;;9.50;99.90;;;;;;5056555;28;20223;-88
2022/09/28 04:08:56;;;;;;;1.65;1.55;;;9.50;99.90;;;;;;5058512;28;20192;-88
2022/09/28 04:11:25;;;;;;;3.90;1.50;;;9.50;99.90;;;;;;5054894;28;20229;-88
2022/09/28 04:13:53;;;;;;;2.55;1.35;;;9.50;99.90;;;;;;5056112;28;20220;-88
2022/09/28 04:16:21;;;;;;;2.97;2.00;;;9.50;99.90;;;;;;5054115;28;20728;-88
2022/09/28 04:19:00;;;;;;;6.65;1.92;;;9.60;99.90;;;;;;5054644;28;20199;-87
2022/09/28 04:21:52;;;;;;;4.00;1.70;;;9.50;99.90;;;;;;5037333;28;20199;-88
2022/09/28 04:24:22;;;;;;;4.70;2.10;;;9.50;99.90;;;;;;5054102;28;20204;-88
2022/09/28 04:26:50;;;;;;;3.28;1.67;;;9.50;99.90;;;;;;5054116;28;20234;-88
2022/09/28 04:29:19;;;;;;;1.90;1.70;;;9.50;99.90;;;;;;5048767;28;20213;-88
2022/09/28 04:32:06;;;;;;;4.32;1.83;;;9.50;99.90;;;;;;5036986;28;20201;-88
2022/09/28 04:34:37;;;;;;;3.50;1.52;;;9.50;99.90;;;;;;5040608;28;20185;-89
2022/09/28 04:37:05;;;;;;;3.03;1.58;;;9.50;99.90;;;;;;5053182;28;20212;-88
2022/09/28 04:39:34;;;;;;;7.95;1.63;;;9.50;99.90;;;;;;5038606;28;20189;-88
2022/09/28 04:42:02;;;;;;;3.00;1.65;;;9.50;99.90;;;;;;5054465;28;20203;-88
2022/09/28 04:44:31;;;;;;;4.20;2.83;;;9.50;99.90;;;;;;5053534;28;20193;-89
2022/09/28 04:47:04;;;;;;;4.60;2.28;;;9.50;99.90;;;;;;5054988;28;20189;-87
2022/09/28 04:49:34;;;;;;;2.13;1.90;;;9.40;99.90;;;;;;5055726;28;20205;-88
2022/09/28 04:52:17;;;;;;;4.82;2.00;;;9.40;99.90;;;;;;5039056;28;20203;-88
2022/09/28 04:54:46;;;;;;;2.83;2.28;;;9.30;99.90;;;;;;5037706;28;20196;-88
2022/09/28 04:57:14;;;;;;;6.60;2.10;;;9.30;99.90;;;;;;5054303;28;20617;-88
2022/09/28 04:59:42;;;;;;;6.72;2.22;;;9.30;99.90;;;;;;5052243;28;20194;-88
2022/09/28 05:02:10;;;;;;;4.80;2.13;;;9.30;99.90;;;;;;5039744;28;20212;-88
2022/09/28 05:05:05;;;;;;;4.63;1.90;;;9.30;99.90;;;;;;5032506;28;20207;-88
2022/09/28 05:07:44;;;;;;;5.00;2.20;;;9.20;99.90;;;;;;5055462;28;20266;-86
2022/09/28 05:10:14;;;;;;;11.90;7.60;;;9.20;99.90;;;;;;5038337;28;20212;-88
2022/09/28 05:12:46;;;;;;;97.60;59.97;;;9.20;99.90;;;;;;5043588;28;20296;-88
2022/09/28 05:15:24;;;;;;;8.45;5.72;;;9.20;99.90;;;;;;5057988;28;20641;-87
2022/09/28 05:18:06;;;;;;;8.45;4.70;;;9.20;99.90;;;;;;5040421;28;20675;-88
2022/09/28 05:21:18;;;;;;;4.70;2.75;;;9.20;99.90;;;;;;5041821;28;20256;-87
2022/09/28 05:23:47;;;;;;;4.25;2.50;;;9.20;99.90;;;;;;5051902;28;20201;-87
2022/09/28 05:26:17;;;;;;;5.60;2.88;;;9.30;99.90;;;;;;5056741;28;20196;-86
2022/09/28 05:28:45;;;;;;;2.72;2.53;;;9.30;99.90;;;;;;5054882;28;20193;-87
2022/09/28 05:31:48;;;;;;;4.68;3.05;;;9.30;99.90;;;;;;4979398;28;20198;-85
2022/09/28 05:34:43;;;;;;;4.07;2.83;;;9.40;99.90;;;;;;5055432;28;20243;-87
2022/09/28 05:37:16;;;;;;;3.03;2.83;;;9.40;99.90;;;;;;5057325;28;20181;-87
2022/09/28 05:39:46;;;;;;;6.45;4.40;;;9.40;99.90;;;;;;5057217;28;20208;-84
2022/09/28 05:42:17;;;;;;;8.18;6.80;;;9.50;99.90;;;;;;5072725;28;20196;-85
2022/09/28 05:44:45;;;;;;;9.90;7.90;;;9.50;99.90;;;;;;5054966;28;20200;-86
2022/09/28 05:47:14;;;;;;;6.47;5.88;;;9.50;99.90;;;;;;5057020;28;20197;-85
2022/09/28 05:49:42;;;;;;;3.42;3.10;;;9.50;99.90;;;;;;5056273;28;20201;-85
2022/09/28 05:52:12;;;;;;;6.47;3.92;;;9.50;99.90;;;;;;5039782;28;20205;-84
2022/09/28 05:54:41;;;;;;;8.30;4.47;;;9.40;99.90;;;;;;5036950;28;20802;-83
2022/09/28 05:57:09;;;;;;;5.00;4.30;;;9.50;99.90;;;;;;5056172;28;20207;-85
2022/09/28 05:59:38;;;;;;;5.20;3.30;;;9.50;99.90;;;;;;5038860;28;20196;-84
2022/09/28 06:02:07;;;;;;;4.93;3.10;;;9.50;99.90;;;;;;5055632;28;20254;-86
2022/09/28 06:04:36;;;;;;;7.05;2.95;;;9.50;99.90;;;;;;5054546;28;20238;-85
2022/09/28 06:07:04;;;;;;;5.57;3.17;;;9.50;99.90;;;;;;5054273;28;20212;-85
2022/09/28 06:09:32;;;;;;;5.28;3.30;;;9.60;99.90;;;;;;5051857;28;20200;-85
2022/09/28 06:12:26;;;;;;;4.90;3.25;;;9.70;99.90;;;;;;5014575;28;20225;-86
2022/09/28 06:15:42;;;;;;;7.40;3.15;;;9.70;99.90;;;;;;4944218;29;20199;-85
2022/09/28 06:18:14;;;;;;;4.28;2.80;;;9.70;99.90;;;;;;4939225;29;20197;-86
2022/09/28 06:20:49;;;;;;;7.03;3.22;;;9.70;99.90;;;;;;4980218;28;20208;-86
2022/09/28 06:23:18;;;;;;;6.40;2.80;;;9.70;99.90;;;;;;5014392;28;20212;-85
2022/09/28 06:25:49;;;;;;;4.07;3.65;;;9.80;99.90;;;;;;4976881;28;20194;-85
2022/09/28 06:28:17;;;;;;;2.50;2.35;;;9.90;99.90;;;;;;4979840;28;20205;-84
2022/09/28 06:30:47;;;;;;;7.78;3.63;;;10.00;99.90;;;;;;4981080;28;20198;-85
2022/09/28 06:33:19;;;;;;;5.20;4.55;;;10.10;99.90;;;;;;4999714;28;20203;-86
2022/09/28 06:35:47;;;;;;;6.20;4.05;;;10.20;99.90;;;;;;5034639;28;20193;-87
2022/09/28 06:38:15;;;;;;;4.13;3.50;;;10.20;99.90;;;;;;5020360;28;20202;-86
2022/09/28 06:40:43;;;;;;;4.35;3.42;;;10.20;99.90;;;;;;4998797;28;20201;-85
2022/09/28 06:43:13;;;;;;;5.45;3.70;;;10.10;99.90;;;;;;4998909;28;20266;-85
2022/09/28 06:46:03;;;;;;;8.70;5.18;;;10.10;99.90;;;;;;5054395;28;20181;-85
2022/09/28 06:48:50;;;;;;;6.50;4.25;;;10.10;99.90;;;;;;5055407;28;20188;-85
2022/09/28 06:51:39;;;;;;;4.38;3.25;;;10.00;99.90;;;;;;5036689;28;20268;-85
2022/09/28 06:54:24;;;;;;;5.22;3.72;;;10.00;99.90;;;;;;5051532;28;20687;-85
2022/09/28 06:57:03;;;;;;;4.30;3.47;;;9.90;99.90;;;;;;5041502;28;20271;-84
2022/09/28 06:59:31;;;;;;;5.10;3.55;;;9.90;99.90;;;;;;5058098;28;20410;-85
2022/09/28 07:02:02;;;;;;;8.98;5.20;;;9.90;99.90;;;;;;5039929;28;20201;-84
2022/09/28 07:04:49;;;;;;;6.65;4.22;;;10.00;99.90;;;;;;5058985;28;20180;-84
2022/09/28 07:07:46;;;;;;;9.50;5.78;;;10.10;99.90;;;;;;5042079;28;20228;-85
2022/09/28 07:10:49;;;;;;;8.23;5.85;;;10.20;99.90;;;;;;5050454;28;20212;-84
2022/09/28 07:13:26;;;;;;;9.45;3.70;;;10.30;99.90;;;;;;5057130;28;20188;-84
2022/09/28 07:15:55;;;;;;;4.32;3.72;;;10.30;99.90;;;;;;5047629;28;20197;-84
2022/09/28 07:18:28;;;;;;;10.85;3.38;;;10.50;99.90;;;;;;5068346;28;20200;-84
2022/09/28 07:20:57;;;;;;;3.30;3.00;;;10.60;99.90;;;;;;5068989;28;20199;-83
2022/09/28 07:23:28;;;;;;;7.20;3.00;;;10.70;99.90;;;;;;5078769;28;20200;-84
2022/09/28 07:26:15;;;;;;;5.90;2.42;;;10.80;99.90;;;;;;5061417;28;20560;-85
2022/09/28 07:28:57;;;;;;;4.97;2.95;;;10.80;99.90;;;;;;5062493;28;20184;-86
2022/09/28 07:31:53;;;;;;;4.22;3.05;;;10.90;99.90;;;;;;5058140;28;20304;-85
2022/09/28 07:34:42;;;;;;;5.00;3.13;;;11.00;99.90;;;;;;5078777;28;20323;-86
2022/09/28 07:37:25;;;;;;;5.10;2.90;;;11.10;99.90;;;;;;5060528;28;20253;-84
2022/09/28 07:42:41;;;;;;;3.70;2.30;;;11.30;99.90;;;;;;5048547;28;20175;-86
2022/09/28 07:45:11;;;;;;;3.85;2.20;;;11.30;99.90;;;;;;5048565;28;20211;-86
2022/09/28 07:47:39;;;;;;;2.78;2.35;;;11.30;99.90;;;;;;5064530;28;20200;-84
2022/09/28 07:50:33;;;;;;;3.08;2.53;;;11.40;99.90;;;;;;5075909;28;20250;-83
2022/09/28 07:53:17;;;;;;;2.50;2.30;;;11.40;99.90;;;;;;5081810;28;20195;-83
2022/09/28 07:56:17;;;;;;;4.13;2.00;;;11.40;99.90;;;;;;5051718;28;20722;-84
2022/09/28 07:58:58;;;;;;;5.22;4.20;;;11.40;99.90;;;;;;5048371;28;20192;-85
2022/09/28 08:01:41;;;;;;;2.42;2.10;;;11.60;99.90;;;;;;5076074;28;20306;-84
2022/09/28 08:04:12;;;;;;;6.15;3.13;;;11.50;99.90;;;;;;5064246;28;20204;-84
2022/09/28 08:06:44;;;;;;;5.68;3.30;;;11.70;99.90;;;;;;5082001;28;20220;-84
2022/09/28 08:09:13;;;;;;;6.60;3.25;;;11.70;99.90;;;;;;5047651;28;20191;-84
2022/09/28 08:12:02;;;;;;;1.88;1.77;;;11.80;99.90;;;;;;5063990;28;20232;-84
2022/09/28 08:14:48;;;;;;;3.05;2.30;;;11.60;99.90;;;;;;5043935;28;20204;-84
2022/09/28 08:17:16;;;;;;;5.55;3.40;;;11.70;99.90;;;;;;5062839;28;20670;-84
2022/09/28 08:22:40;;;;;;;4.07;2.50;;;11.40;99.90;;;;;;5046506;28;20211;-85
2022/09/28 08:25:09;;;;;;;3.95;2.28;;;11.40;99.90;;;;;;5081376;28;20204;-84
2022/09/28 08:27:38;;;;;;;6.78;2.60;;;11.50;99.90;;;;;;5063769;28;20188;-84
2022/09/28 08:30:08;;;;;;;6.50;3.50;;;11.60;99.90;;;;;;5062992;28;20200;-84
2022/09/28 08:32:59;;;;;;;9.85;4.35;;;11.70;99.90;;;;;;5073496;28;20630;-86
2022/09/28 08:35:27;;;;;;;8.82;3.28;;;11.70;99.90;;;;;;5063420;28;20295;-84
2022/09/28 08:38:17;;;;;;;9.63;3.50;;;11.60;99.90;;;;;;5080610;28;20271;-84
2022/09/28 08:41:13;;;;;;;8.80;2.85;;;11.30;99.90;;;;;;5080260;28;20245;-85
2022/09/28 08:44:10;;;;;;;5.65;2.60;;;11.20;99.90;;;;;;5060323;28;20196;-84
2022/09/28 08:50:21;;;;;;;8.23;3.10;;;11.20;99.90;;;;;;5078022;28;20253;-83
2022/09/28 08:53:24;;;;;;;5.43;2.97;;;11.20;99.90;;;;;;5058598;28;20191;-83
2022/09/28 08:56:14;;;;;;;4.85;2.60;;;11.40;99.90;;;;;;5041440;28;20232;-83
2022/09/28 08:58:47;;;;;;;5.03;2.45;;;11.60;99.90;;;;;;5060919;28;20193;-84
2022/09/28 09:01:19;;;;;;;6.57;2.33;;;11.80;99.90;;;;;;5075542;28;20264;-86
2022/09/28 09:03:49;;;;;;;2.40;2.20;;;11.80;99.90;;;;;;5063019;28;20267;-84
2022/09/28 09:06:57;;;;;;;3.65;2.42;;;11.70;99.90;;;;;;5062476;28;20216;-84
2022/09/28 09:09:43;;;;;;;3.58;2.45;;;11.80;99.90;;;;;;5062914;28;20196;-84
2022/09/28 09:12:18;;;;;;;3.72;2.30;;;12.10;99.90;;;;;;5062477;28;20262;-83
2022/09/28 09:15:17;;;;;;;3.25;2.38;;;12.20;99.90;;;;;;5044045;28;20208;-85
2022/09/28 09:18:00;;;;;;;2.80;2.60;;;12.20;99.90;;;;;;5076550;28;20646;-84
2022/09/28 09:20:51;;;;;;;2.72;2.53;;;12.10;99.90;;;;;;5062660;28;20190;-85
2022/09/28 09:23:46;;;;;;;4.95;2.58;;;12.20;99.90;;;;;;5029167;28;20188;-85
2022/09/28 09:26:19;;;;;;;5.43;1.92;;;11.90;99.90;;;;;;5043696;28;20185;-89
2022/09/28 09:29:10;;;;;;;5.97;2.50;;;12.00;99.90;;;;;;5049447;28;20263;-88
2022/09/28 09:32:05;;;;;;;3.88;2.30;;;12.00;99.90;;;;;;5039684;28;20646;-85
2022/09/28 09:34:52;;;;;;;3.60;1.65;;;12.10;99.90;;;;;;5045552;28;20195;-85
2022/09/28 09:38:06;;;;;;;4.00;2.42;;;12.10;99.90;;;;;;5048120;28;20204;-86
2022/09/28 09:41:08;;;;;;;1.98;1.48;;;12.50;99.90;;;;;;5054262;28;20209;-86
2022/09/28 09:44:19;;;;;;;3.45;2.00;;;12.70;99.90;;;;;;5060806;28;20205;-86
2022/09/28 09:47:12;;;;;;;4.25;2.03;;;12.90;99.90;;;;;;5053296;28;20210;-84
2022/09/28 09:49:55;;;;;;;4.82;1.95;;;12.70;99.90;;;;;;5050936;28;20244;-85
2022/09/28 09:52:29;;;;;;;3.30;1.90;;;12.80;99.90;;;;;;5079903;28;20192;-85
2022/09/28 09:55:03;;;;;;;4.32;2.10;;;12.70;99.90;;;;;;5061713;28;20211;-85
2022/09/28 09:57:58;;;;;;;3.00;2.10;;;13.00;99.90;;;;;;5042639;28;20609;-86
2022/09/28 10:00:41;;;;;;;5.53;1.73;;;13.10;99.90;;;;;;5060463;28;20653;-85
2022/09/28 10:03:23;;;;;;;6.10;1.93;;;13.50;99.90;;;;;;5077997;28;20195;-84
2022/09/28 10:05:56;;;;;;;3.67;1.77;;;13.20;99.90;;;;;;5075208;28;20591;-84
2022/09/28 10:08:26;;;;;;;5.53;2.20;;;13.50;99.90;;;;;;5065348;28;20590;-83
2022/09/28 10:11:07;;;;;;;4.77;2.07;;;13.40;99.90;;;;;;5063238;28;20641;-85
2022/09/28 10:13:39;;;;;;;4.63;1.80;;;13.40;99.90;;;;;;5078583;28;20589;-85
2022/09/28 10:16:25;;;;;;;2.40;1.67;;;13.20;99.90;;;;;;5055272;28;20810;-85
2022/09/28 10:19:00;;;;;;;2.20;1.70;;;13.60;99.90;;;;;;5049525;28;20554;-84
2022/09/28 10:21:51;;;;;;;5.27;1.70;;;13.80;99.90;;;;;;5071674;28;20203;-85
2022/09/28 10:24:33;;;;;;;2.73;1.23;;;14.20;99.90;;;;;;5012606;28;20612;-85
2022/09/28 10:27:07;;;;;;;3.83;2.00;;;14.20;99.90;;;;;;5043729;28;20584;-85
2022/09/28 10:29:45;;;;;;;1.93;1.70;;;13.80;99.90;;;;;;5062081;28;20581;-85
2022/09/28 10:32:22;;;;;;;3.00;1.50;;;13.60;99.90;;;;;;5044337;28;20618;-84
2022/09/28 10:35:13;;;;;;;5.33;1.90;;;13.60;99.90;;;;;;5045213;28;20585;-84
2022/09/28 10:37:53;;;;;;;2.17;1.50;;;13.70;99.90;;;;;;5042088;28;21129;-84
2022/09/28 10:40:58;;;;;;;3.67;2.57;;;13.90;99.90;;;;;;5043131;28;20686;-85
2022/09/28 10:43:38;;;;;;;3.63;1.90;;;14.00;99.90;;;;;;5057927;28;21153;-85
2022/09/28 10:46:14;;;;;;;1.80;1.70;;;14.20;99.90;;;;;;5048694;28;20943;-86
2022/09/28 10:48:53;;;;;;;5.07;2.10;;;14.30;99.90;;;;;;5060381;28;20796;-85
2022/09/28 10:51:41;;;;;;;8.70;2.30;;;14.20;99.90;;;;;;5042553;28;20974;-85
2022/09/28 10:54:16;;;;;;;4.77;2.23;;;14.90;99.90;;;;;;5076175;28;21159;-85
2022/09/28 10:56:49;;;;;;;3.60;1.83;;;15.70;99.90;;;;;;5068049;28;21299;-85
2022/09/28 10:59:39;;;;;;;5.00;2.33;;;16.10;99.90;;;;;;5043179;28;20594;-85
2022/09/28 11:02:45;;;;;;;5.13;1.80;;;15.40;99.90;;;;;;5049659;28;20643;-84
2022/09/28 11:05:27;;;;;;;2.00;1.90;;;16.00;99.90;;;;;;5039456;28;21206;-84
2022/09/28 11:08:00;;;;;;;4.87;2.20;;;15.90;99.90;;;;;;5038264;28;20637;-85
2022/09/28 11:11:08;;;;;;;2.40;2.20;;;16.10;99.90;;;;;;4968174;28;20659;-84
2022/09/28 11:13:42;;;;;;;4.80;2.60;;;15.60;99.90;;;;;;5055529;28;21157;-84
2022/09/28 11:16:27;;;;;;;2.60;2.40;;;15.10;99.90;;;;;;5056161;28;20643;-85
2022/09/28 11:18:56;;;;;;;2.57;2.20;;;14.70;99.90;;;;;;5055159;28;20721;-86
2022/09/28 11:21:29;;;;;;;3.47;2.50;;;14.80;99.90;;;;;;5061665;28;20627;-85
2022/09/28 11:24:17;;;;;;;2.50;2.30;;;15.30;99.90;;;;;;5059519;28;20622;-86
2022/09/28 11:26:51;;;;;;;6.53;2.90;;;15.60;99.90;;;;;;5060117;28;20611;-86
2022/09/28 11:29:30;;;;;;;2.60;2.40;;;15.20;99.90;;;;;;5041613;28;20971;-86
2022/09/28 11:32:41;;;;;;;3.47;2.60;;;14.60;99.90;;;;;;5065447;28;20653;-83
2022/09/28 11:35:35;;;;;;;6.17;2.60;;;15.90;99.90;;;;;;5062411;28;20626;-84
2022/09/28 11:38:27;;;;;;;3.93;2.60;;;16.20;99.90;;;;;;5062741;28;20594;-84
2022/09/28 11:41:47;;;;;;;3.23;3.03;;;16.00;99.90;;;;;;5050056;28;20631;-84
2022/09/28 11:44:40;;;;;;;2.97;2.83;;;17.10;99.90;;;;;;5056426;28;20626;-84
2022/09/28 11:47:45;;;;;;;5.10;3.00;;;17.10;99.90;;;;;;5041316;28;20635;-84
2022/09/28 11:50:21;;;;;;;3.17;2.97;;;17.90;99.90;;;;;;5055059;28;20626;-84
2022/09/28 11:52:57;;;;;;;5.30;3.10;;;17.90;99.90;;;;;;5056667;28;20602;-84
2022/09/28 11:55:31;;;;;;;4.30;4.00;;;17.90;99.90;;;;;;5057633;28;20615;-84
2022/09/28 11:58:06;;;;;;;4.07;3.70;;;17.90;99.90;;;;;;5054370;28;20643;-85
2022/09/28 12:00:38;;;;;;;3.20;2.83;;;18.40;99.90;;;;;;5071880;28;20606;-83
2022/09/28 12:03:14;;;;;;;3.60;3.03;;;17.10;99.90;;;;;;5059360;28;20608;-86
2022/09/28 12:05:47;;;;;;;6.10;3.60;;;17.50;99.90;;;;;;5060403;28;21239;-85
2022/09/28 12:08:24;;;;;;;4.20;3.80;;;18.00;99.90;;;;;;5057125;28;21307;-85
2022/09/28 12:11:09;;;;;;;4.40;4.00;;;17.30;99.90;;;;;;5052146;28;21002;-86
2022/09/28 12:13:59;;;;;;;5.63;3.40;;;16.20;99.90;;;;;;5078252;28;20593;-85
2022/09/28 12:16:34;;;;;;;3.97;3.70;;;16.10;99.90;;;;;;5068985;28;20693;-85
2022/09/28 12:19:10;;;;;;;3.00;2.50;;;16.80;99.90;;;;;;5040791;28;20622;-85
2022/09/28 12:21:44;;;;;;;4.37;3.30;;;17.90;99.90;;;;;;5061638;28;20645;-86
2022/09/28 12:24:19;;;;;;;2.90;2.70;;;18.30;99.90;;;;;;5063282;28;20660;-85
2022/09/28 12:26:54;;;;;;;4.10;3.37;;;17.60;99.90;;;;;;5076769;28;20585;-85
2022/09/28 12:29:30;;;;;;;6.20;2.90;;;16.90;99.90;;;;;;5080665;28;20641;-84
2022/09/28 12:32:09;;;;;;;4.17;3.00;;;16.00;99.90;;;;;;5079888;28;20585;-84
2022/09/28 12:34:37;;;;;;;3.60;3.30;;;15.80;99.90;;;;;;5080714;28;20640;-85
2022/09/28 12:37:30;;;;;;;3.67;3.33;;;15.80;99.90;;;;;;5080520;28;20628;-84
2022/09/28 12:40:15;;;;;;;3.83;3.37;;;16.00;99.90;;;;;;5066684;28;20717;-84
2022/09/28 12:43:02;;;;;;;3.60;3.40;;;17.60;99.90;;;;;;5065833;28;20602;-84
2022/09/28 12:45:49;;;;;;;4.33;3.20;;;18.20;99.90;;;;;;5046647;28;20609;-85
2022/09/28 12:48:57;;;;;;;3.70;3.40;;;17.50;99.90;;;;;;5064329;28;20563;-84
2022/09/28 12:51:40;;;;;;;6.07;4.73;;;16.70;99.90;;;;;;5080422;28;20617;-85
2022/09/28 12:54:23;;;;;;;4.13;3.07;;;15.70;99.90;;;;;;5060581;28;20595;-86
2022/09/28 12:57:07;;;;;;;2.37;2.27;;;15.20;99.90;;;;;;5043907;28;20642;-86
2022/09/28 12:59:42;;;;;;;5.03;2.80;;;15.00;99.90;;;;;;5049313;28;20697;-85
2022/09/28 13:02:56;;;;;;;3.97;3.40;;;15.30;99.90;;;;;;5046742;28;21049;-86
2022/09/28 13:05:55;;;;;;;3.70;2.43;;;15.30;99.90;;;;;;5031723;28;20627;-85
2022/09/28 13:08:33;;;;;;;6.60;3.50;;;15.50;99.90;;;;;;5005477;28;20621;-86
2022/09/28 13:11:08;;;;;;;3.30;3.10;;;15.30;99.90;;;;;;5061054;28;20637;-85
2022/09/28 13:13:47;;;;;;;5.93;3.13;;;15.20;99.90;;;;;;5060980;28;20617;-85
2022/09/28 13:16:23;;;;;;;2.70;2.27;;;15.20;99.90;;;;;;5078505;28;20705;-86
2022/09/28 13:19:01;;;;;;;2.70;2.50;;;15.40;99.90;;;;;;5026228;28;20598;-85
2022/09/28 13:21:34;;;;;;;6.93;2.53;;;15.40;99.90;;;;;;5069840;28;20626;-85
2022/09/28 13:24:04;;;;;;;2.90;2.70;;;15.70;99.90;;;;;;5060132;28;20600;-86
2022/09/28 13:26:36;;;;;;;3.97;2.97;;;15.80;99.90;;;;;;5054206;28;20808;-85
2022/09/28 13:29:12;;;;;;;3.90;2.53;;;15.80;99.90;;;;;;5077073;28;20702;-86
2022/09/28 13:31:47;;;;;;;2.90;2.50;;;15.80;99.90;;;;;;5059824;28;20611;-85
2022/09/28 13:34:21;;;;;;;2.47;2.37;;;15.50;99.90;;;;;;5059906;28;20574;-86
2022/09/28 13:37:18;;;;;;;4.00;2.53;;;15.70;99.90;;;;;;5071956;28;20645;-87
2022/09/28 13:39:51;;;;;;;2.53;2.40;;;15.30;99.90;;;;;;5039288;28;20610;-85
2022/09/28 13:42:32;;;;;;;2.10;2.00;;;15.40;99.90;;;;;;5061707;28;20611;-86
2022/09/28 13:45:27;;;;;;;2.83;2.27;;;15.50;99.90;;;;;;5075927;28;20637;-86
2022/09/28 13:48:18;;;;;;;3.73;2.60;;;15.50;99.90;;;;;;5065892;28;20835;-86
2022/09/28 13:51:09;;;;;;;7.33;2.50;;;15.50;99.90;;;;;;5036568;28;21259;-87
2022/09/28 13:53:52;;;;;;;4.13;2.70;;;15.60;99.90;;;;;;5040542;28;20587;-86
2022/09/28 13:56:30;;;;;;;5.03;2.70;;;15.30;99.90;;;;;;5040064;28;20689;-86
2022/09/28 13:59:03;;;;;;;2.20;2.10;;;15.50;99.90;;;;;;5055621;28;21144;-85